DW9771 Weather Reports


Display with metric or nautical units.
time (UTC)temp
F
wind
direction
speed
MPH
gust
MPH
rain 1hr
in
rain 24hr
in
rain mn
in
humidity
%
barometer
mb
20190223171705 40 154 5.0 11.0 0.00 0.46 0.01 91 1019.0
20190223170134 40 130 4.0 9.0 0.00 0.46 0.01 90 1018.8
20190223163217 37 153 3.0 7.0 0.01 0.56 0.01 93 1018.7
20190223161524 38 155 4.0 10.0 0.01 0.56 0.01 93 1018.6
20190223160055 37 181 4.0 10.0 0.01 0.56 0.01 93 1018.5
20190223154648 37 191 5.0 9.0 0.01 0.60 0.01 94 1018.5
20190223144507 37 142 5.0 10.0 0.00 0.62 0.00 93 1018.2
20190223143031 37 96 5.0 9.0 0.00 0.62 0.00 92 1018.3
20190223141727 38 165 5.0 10.0 0.00 0.62 0.00 92 1018.2
20190223140140 38 166 5.0 10.0 0.00 0.62 0.00 91 1018.2
20190223134710 38 144 6.0 12.0 0.00 0.62 0.00 91 1018.3
20190223131647 39 173 3.0 7.0 0.00 0.62 0.00 91 1018.3
20190223124524 39 206 4.0 7.0 0.00 0.62 0.00 89 1018.3
20190223123029 40 218 5.0 10.0 0.00 0.62 0.00 89 1018.3
20190223120032 39 55 0.0 11.0 0.00 0.62 0.00 91 1018.1
20190223114712 39 194 3.0 7.0 0.00 0.64 0.00 92 1018.1
20190223113151 39 218 4.0 8.0 0.00 0.64 0.00 92 1018.1
20190223111514 39 183 2.0 5.0 0.00 0.64 0.00 91 1018.2
20190223110041 39 162 3.0 6.0 0.00 0.64 0.00 90 1018.3
20190223104651 40 158 2.0 5.0 0.00 0.64 0.00 89 1018.3
20190223103141 39 32 1.0 3.0 0.00 0.64 0.00 86 1018.2
20190223101504 39 312 0.0 6.0 0.00 0.64 0.00 87 1018.1
20190223100114 39 84 1.0 8.0 0.00 0.64 0.00 86 1018.0
20190223094637 39 82 0.0 1.0 0.00 0.64 0.00 84 1017.7
20190223093057 39 75 0.0 3.0 0.00 0.64 0.00 84 1017.4
20190223091623 38 70 0.0 2.0 0.00 0.64 0.00 85 1017.4
20190223084516 39 51 0.0 3.0 0.00 0.64 0.00 87 1017.6
20190223083048 37 49 0.0 1.0 0.00 0.64 0.00 90 1017.4
20190223081536 37 68 0.0 1.0 0.00 0.64 0.00 90 1017.4
20190223074518 37 27 0.0 0.0 0.01 0.64 0.64 89 1017.1
20190223073045 37 23 0.0 1.0 0.01 0.64 0.64 88 1017.0
20190223071600 38 295 1.0 6.0 0.01 0.64 0.64 87 1016.9
20190223064501 37 297 0.0 5.0 0.00 0.63 0.63 94 1017.2
20190223063053 36 302 0.0 0.0 0.01 0.63 0.63 93 1017.0
20190223061617 37 341 0.0 0.0 0.06 0.63 0.63 93 1016.9
20190223060033 37 342 0.0 2.0 0.07 0.63 0.63 92 1016.8
20190223054516 37 299 1.0 5.0 0.07 0.63 0.63 92 1017.1
20190223051505 37 311 3.0 8.0 0.01 0.56 0.56 92 1016.8
20190223050045 36 346 0.0 0.0 0.00 0.56 0.56 90 1016.3
20190223044657 37 346 0.0 0.0 0.02 0.56 0.56 90 1016.3
20190223043003 37 346 0.0 1.0 0.02 0.56 0.56 89 1016.1
20190223041526 38 335 1.0 7.0 0.02 0.56 0.56 87 1016.2
20190223040013 40 316 2.0 12.0 0.02 0.56 0.56 85 1016.2
20190223034531 41 191 6.0 13.0 0.00 0.54 0.54 83 1015.8
20190223033104 41 312 0.0 3.0 0.00 0.54 0.54 82 1015.7
20190223031623 42 289 0.0 4.0 0.00 0.54 0.54 81 1015.7
20190223030052 42 319 1.0 4.0 0.00 0.54 0.54 81 1015.6
20190223024705 42 290 0.0 5.0 0.00 0.54 0.54 82 1015.4
20190223021513 42 295 2.0 8.0 0.00 0.54 0.54 81 1015.2
20190223020114 42 302 1.0 6.0 0.00 0.54 0.54 76 1015.0
20190223014620 42 306 4.0 11.0 0.00 0.54 0.54 78 1014.8
20190223013005 42 308 3.0 9.0 0.00 0.54 0.54 80 1014.8
20190223010016 42 300 0.0 4.0 0.00 0.54 0.54 84 1014.6
20190223004707 41 293 1.0 4.0 0.03 0.54 0.54 82 1014.5
20190223003114 42 67 4.0 9.0 0.03 0.54 0.54 84 1014.4
20190223001658 42 302 0.0 4.0 0.03 0.54 0.54 88 1014.5
20190223000025 41 311 0.0 10.0 0.03 0.54 0.54 86 1014.4
20190222234633 45 285 4.0 10.0 0.00 0.51 0.51 72 1014.2
20190222233028 44 331 4.0 8.0 0.00 0.51 0.51 71 1014.0
20190222230021 45 311 4.0 11.0 0.00 0.51 0.51 72 1013.9
20190222224538 45 316 6.0 14.0 0.00 0.51 0.51 76 1013.8
20190222223045 44 320 4.0 12.0 0.00 0.51 0.51 80 1013.7
20190222221631 44 314 3.0 14.0 0.00 0.51 0.51 84 1013.6
20190222220015 43 165 3.0 7.0 0.00 0.51 0.51 86 1013.5
20190222214616 42 305 4.0 16.0 0.00 0.51 0.51 91 1013.4
20190222213019 42 293 4.0 11.0 0.00 0.51 0.51 92 1013.4
20190222211741 42 292 5.0 15.0 0.00 0.51 0.51 94 1013.4
20190222210004 43 308 3.0 8.0 0.00 0.51 0.51 95 1013.3
20190222203142 42 292 1.0 6.0 0.00 0.51 0.51 95 1013.5
20190222201537 42 326 2.0 6.0 0.02 0.51 0.51 96 1013.6
20190222200026 41 311 0.0 4.0 0.07 0.51 0.51 96 1013.6
20190222193027 40 311 2.0 6.0 0.23 0.51 0.51 96 1013.8
20190222191545 39 311 4.0 15.0 0.24 0.49 0.49 95 1013.6
20190222190043 39 309 4.0 18.0 0.20 0.44 0.44 94 1013.8
20190222184502 44 152 4.0 17.0 0.08 0.28 0.28 94 1012.6
20190222183045 44 204 4.0 14.0 0.08 0.28 0.28 94 1012.8
20190222181516 44 30 4.0 13.0 0.05 0.25 0.25 93 1013.1
20190222174511 44 148 3.0 15.0 0.04 0.21 0.21 91 1013.5